createdAt,value
2022-10-23T00:01:56.639Z,5.10
2022-10-23T00:04:26.307Z,4.22
2022-10-23T00:06:54.130Z,5.80
2022-10-23T00:09:24.912Z,5.15
2022-10-23T00:11:53.300Z,8.10
2022-10-23T00:14:24.058Z,5.95
2022-10-23T00:16:53.199Z,7.53
2022-10-23T00:19:20.963Z,8.50
2022-10-23T00:21:48.718Z,7.90
2022-10-23T00:24:16.419Z,6.78
2022-10-23T00:26:44.576Z,6.55
2022-10-23T00:29:12.811Z,6.47
2022-10-23T00:31:40.615Z,7.47
2022-10-23T00:34:12.058Z,6.25
2022-10-23T00:36:40.651Z,6.60
2022-10-23T00:39:08.470Z,6.85
2022-10-23T00:41:36.185Z,7.97
2022-10-23T00:44:09.575Z,8.00
2022-10-23T00:46:38.914Z,7.32
2022-10-23T00:49:08.014Z,6.47
2022-10-23T00:51:42.136Z,4.50
2022-10-23T00:54:23.626Z,3.10
2022-10-23T00:56:54.506Z,3.53
2022-10-23T00:59:22.299Z,3.95
2022-10-23T01:01:50.177Z,3.55
2022-10-23T01:04:19.586Z,3.05
2022-10-23T01:07:00.339Z,3.97
2022-10-23T01:09:33.038Z,3.47
2022-10-23T01:12:11.344Z,2.72
2022-10-23T01:14:44.378Z,2.25
2022-10-23T01:17:19.078Z,2.22
2022-10-23T01:20:00.903Z,2.17
2022-10-23T01:22:49.103Z,2.13
2022-10-23T01:25:29.707Z,2.08
2022-10-23T01:28:03.727Z,1.73
2022-10-23T01:30:34.429Z,2.00
2022-10-23T01:33:09.040Z,1.90
2022-10-23T01:35:51.007Z,1.55
2022-10-23T01:38:23.679Z,2.42
2022-10-23T01:41:04.315Z,2.30
2022-10-23T01:43:41.658Z,1.40
2022-10-23T01:46:14.111Z,1.98
2022-10-23T01:48:46.850Z,1.50
2022-10-23T01:51:16.035Z,1.65
2022-10-23T01:53:50.371Z,2.50
2022-10-23T01:56:22.621Z,1.20
2022-10-23T01:58:55.410Z,1.88
2022-10-23T02:01:28.846Z,1.20
2022-10-23T02:06:27.192Z,1.40
2022-10-23T02:08:55.103Z,2.35
2022-10-23T02:11:26.293Z,1.75
2022-10-23T02:14:02.702Z,1.10
2022-10-23T02:16:38.731Z,1.17
2022-10-23T02:19:15.873Z,1.50
2022-10-23T02:21:52.196Z,1.33
2022-10-23T02:24:24.947Z,1.40
2022-10-23T02:26:56.684Z,1.70
2022-10-23T02:29:31.303Z,0.80
2022-10-23T02:32:00.631Z,1.33
2022-10-23T02:34:28.806Z,1.50
2022-10-23T02:36:57.266Z,1.50
2022-10-23T02:39:28.759Z,3.22
2022-10-23T02:42:05.209Z,1.80
2022-10-23T02:44:44.458Z,1.63
2022-10-23T02:47:22.382Z,2.05
2022-10-23T02:49:58.303Z,1.25
2022-10-23T02:52:30.833Z,2.22
2022-10-23T02:55:15.030Z,1.40
2022-10-23T02:57:55.626Z,1.20
2022-10-23T03:00:25.183Z,2.10
2022-10-23T03:02:58.457Z,2.15
2022-10-23T03:05:33.286Z,2.00
2022-10-23T03:08:04.150Z,1.20
2022-10-23T03:10:31.950Z,1.55
2022-10-23T03:12:59.663Z,1.50
2022-10-23T03:15:32.181Z,1.45
2022-10-23T03:17:59.886Z,1.13
2022-10-23T03:20:27.711Z,1.40
2022-10-23T03:22:55.447Z,1.15
2022-10-23T03:25:23.160Z,1.15
2022-10-23T03:27:51.898Z,1.50
2022-10-23T03:30:19.836Z,0.93
2022-10-23T03:32:52.891Z,1.13
2022-10-23T03:35:20.582Z,2.00
2022-10-23T03:37:48.399Z,1.50
2022-10-23T03:40:17.016Z,1.80
2022-10-23T03:42:45.686Z,1.30
2022-10-23T03:45:17.471Z,1.67
2022-10-23T03:47:45.557Z,1.27
2022-10-23T03:50:16.320Z,1.30
2022-10-23T03:52:44.461Z,1.75
2022-10-23T03:55:13.980Z,1.23
2022-10-23T03:57:41.731Z,1.83
2022-10-23T04:00:11.410Z,1.30
2022-10-23T04:02:48.349Z,2.40
2022-10-23T04:05:18.423Z,1.20
2022-10-23T04:07:54.663Z,1.50
2022-10-23T04:10:22.649Z,1.40
2022-10-23T04:12:51.148Z,1.33
2022-10-23T04:15:19.051Z,1.27
2022-10-23T04:17:47.590Z,1.15
2022-10-23T04:20:15.462Z,1.27
2022-10-23T04:22:44.719Z,1.45
2022-10-23T04:25:12.815Z,1.23
2022-10-23T04:27:41.280Z,1.27
2022-10-23T04:30:10.604Z,1.20
2022-10-23T04:32:39.390Z,1.40
2022-10-23T04:35:08.359Z,1.23
2022-10-23T04:37:36.154Z,2.30
2022-10-23T04:40:05.506Z,1.60
2022-10-23T04:42:36.478Z,1.60
2022-10-23T04:45:08.035Z,2.17
2022-10-23T04:47:36.684Z,1.17
2022-10-23T04:50:05.527Z,1.13
2022-10-23T04:52:55.562Z,1.30
2022-10-23T04:55:40.911Z,1.10
2022-10-23T04:58:13.628Z,1.13
2022-10-23T05:00:42.432Z,1.48
2022-10-23T05:03:10.499Z,1.17
2022-10-23T05:05:43.063Z,1.20
2022-10-23T05:08:26.624Z,1.10
2022-10-23T05:11:15.578Z,1.30
2022-10-23T05:13:47.155Z,1.30
2022-10-23T05:16:31.382Z,1.10
2022-10-23T05:19:00.703Z,1.10
2022-10-23T05:21:32.039Z,1.42
2022-10-23T05:24:01.797Z,1.50
2022-10-23T05:26:32.522Z,1.25
2022-10-23T05:29:05.851Z,1.40
2022-10-23T05:31:36.097Z,1.73
2022-10-23T05:34:13.429Z,0.90
2022-10-23T05:36:44.863Z,1.10
2022-10-23T05:39:14.347Z,1.10
2022-10-23T05:41:43.454Z,1.02
2022-10-23T05:44:11.287Z,1.50
2022-10-23T05:46:53.950Z,1.70
2022-10-23T05:49:41.895Z,1.08
2022-10-23T05:52:29.711Z,1.30
2022-10-23T05:55:11.947Z,1.33
2022-10-23T05:57:50.435Z,1.30
2022-10-23T06:00:23.806Z,1.48
2022-10-23T06:03:06.862Z,1.38
2022-10-23T06:05:41.135Z,1.85
2022-10-23T06:08:20.518Z,1.40
2022-10-23T06:10:51.147Z,1.60
2022-10-23T06:13:21.239Z,1.10
2022-10-23T06:15:49.444Z,1.52
2022-10-23T06:18:22.799Z,1.60
2022-10-23T06:20:56.235Z,1.75
2022-10-23T06:23:27.250Z,1.95
2022-10-23T06:26:17.147Z,2.20
2022-10-23T06:28:56.813Z,2.00
2022-10-23T06:31:26.563Z,1.98
2022-10-23T06:33:56.070Z,1.55
2022-10-23T06:36:24.703Z,1.50
2022-10-23T06:38:56.368Z,1.63
2022-10-23T06:41:34.479Z,1.80
2022-10-23T06:44:03.524Z,1.73
2022-10-23T06:46:46.924Z,1.75
2022-10-23T06:49:35.237Z,1.50
2022-10-23T06:52:04.118Z,1.98
2022-10-23T06:54:31.879Z,1.88
2022-10-23T06:57:13.524Z,1.70
2022-10-23T06:59:47.594Z,1.52
2022-10-23T07:02:17.127Z,1.98
2022-10-23T07:04:45.582Z,1.73
2022-10-23T07:07:18.038Z,1.73
2022-10-23T07:09:48.587Z,1.95
2022-10-23T07:12:22.735Z,1.95
2022-10-23T07:14:58.324Z,2.53
2022-10-23T07:17:26.315Z,2.10
2022-10-23T07:19:54.219Z,1.85
2022-10-23T07:22:22.162Z,1.70
2022-10-23T07:25:05.074Z,1.92
2022-10-23T07:27:38.657Z,1.85
2022-10-23T07:30:11.108Z,1.70
2022-10-23T07:32:46.420Z,1.90
2022-10-23T07:35:37.050Z,2.60
2022-10-23T07:38:13.660Z,2.92
2022-10-23T07:40:45.339Z,1.92
2022-10-23T07:43:18.150Z,2.60
2022-10-23T07:45:49.650Z,1.77
2022-10-23T07:48:25.449Z,2.33
2022-10-23T07:51:01.748Z,1.73
2022-10-23T07:53:30.120Z,1.23
2022-10-23T07:56:14.298Z,1.50
2022-10-23T07:59:02.062Z,1.70
2022-10-23T08:01:33.831Z,1.30
2022-10-23T08:04:02.049Z,1.17
2022-10-23T08:06:31.279Z,1.60
2022-10-23T08:09:02.318Z,4.67
2022-10-23T08:11:35.472Z,0.77
2022-10-23T08:14:06.848Z,1.00
2022-10-23T08:16:39.249Z,0.80
2022-10-23T08:19:26.934Z,2.23
2022-10-23T08:21:57.047Z,1.07
2022-10-23T08:24:24.843Z,1.97
2022-10-23T08:26:52.850Z,1.97
2022-10-23T08:29:24.218Z,1.00
2022-10-23T08:31:57.377Z,1.17
2022-10-23T08:34:29.150Z,0.97
2022-10-23T08:36:57.207Z,1.10
2022-10-23T08:39:25.290Z,0.90
2022-10-23T08:42:04.804Z,0.70
2022-10-23T08:44:36.162Z,0.80
2022-10-23T08:47:11.492Z,0.90
2022-10-23T08:50:04.243Z,0.77
2022-10-23T08:52:38.112Z,0.80
2022-10-23T08:55:15.800Z,0.73
2022-10-23T08:57:49.905Z,0.80
2022-10-23T09:00:19.625Z,0.70
2022-10-23T09:02:51.429Z,0.70
2022-10-23T09:05:24.354Z,0.60
2022-10-23T09:08:14.099Z,0.50
2022-10-23T09:10:52.526Z,0.60
2022-10-23T09:13:39.835Z,0.90
2022-10-23T09:16:19.498Z,0.90
2022-10-23T09:18:50.468Z,0.80
2022-10-23T09:21:18.306Z,0.70
2022-10-23T09:23:46.060Z,0.70
2022-10-23T09:26:16.806Z,0.63
2022-10-23T09:28:49.302Z,0.63
2022-10-23T09:31:18.211Z,0.63
2022-10-23T09:33:57.242Z,0.80
2022-10-23T09:36:25.838Z,1.00
2022-10-23T09:38:55.051Z,0.63
2022-10-23T09:41:25.547Z,0.60
2022-10-23T09:44:02.667Z,0.67
2022-10-23T09:46:39.209Z,0.87
2022-10-23T09:49:17.727Z,1.00
2022-10-23T09:51:54.718Z,0.73
2022-10-23T09:54:24.732Z,0.63
2022-10-23T09:56:55.357Z,0.50
2022-10-23T09:59:26.814Z,0.70
2022-10-23T10:01:57.066Z,1.00
2022-10-23T10:04:46.174Z,0.60
2022-10-23T10:07:20.627Z,0.70
2022-10-23T10:09:48.926Z,0.90
2022-10-23T10:12:37.464Z,1.10
2022-10-23T10:15:20.878Z,0.70
2022-10-23T10:17:57.838Z,1.10
2022-10-23T10:20:42.745Z,1.53
2022-10-23T10:23:19.146Z,0.90
2022-10-23T10:25:53.699Z,0.90
2022-10-23T10:28:32.157Z,1.17
2022-10-23T10:31:10.746Z,1.20
2022-10-23T10:33:47.421Z,1.00
2022-10-23T10:36:30.445Z,1.27
2022-10-23T10:39:01.107Z,0.83
2022-10-23T10:41:42.194Z,0.97
2022-10-23T10:44:25.098Z,1.53
2022-10-23T10:46:59.204Z,1.30
2022-10-23T10:49:39.042Z,1.17
2022-10-23T10:52:25.302Z,1.17
2022-10-23T10:55:03.346Z,1.10
2022-10-23T10:57:33.636Z,0.83
2022-10-23T11:00:06.426Z,1.00
2022-10-23T11:02:41.335Z,0.93
2022-10-23T11:05:19.772Z,1.00
2022-10-23T11:07:55.830Z,1.00
2022-10-23T11:10:24.028Z,1.00
2022-10-23T11:12:52.584Z,1.00
2022-10-23T11:15:23.418Z,1.50
2022-10-23T11:17:55.811Z,0.90
2022-10-23T11:20:38.823Z,1.37
2022-10-23T11:23:26.403Z,0.80
2022-10-23T11:26:04.277Z,1.00
2022-10-23T11:28:49.995Z,0.90
2022-10-23T11:31:28.446Z,0.70
2022-10-23T11:34:19.141Z,1.90
2022-10-23T11:36:49.826Z,2.40
2022-10-23T11:39:22.845Z,1.40
2022-10-23T11:41:54.417Z,1.60
2022-10-23T11:44:40.992Z,1.23
2022-10-23T11:47:28.955Z,1.70
2022-10-23T11:50:14.285Z,1.10
2022-10-23T11:56:00.624Z,1.17
2022-10-23T11:58:40.790Z,1.10
2022-10-23T12:01:29.190Z,1.50
2022-10-23T12:04:00.314Z,1.00
2022-10-23T12:06:32.560Z,1.30
2022-10-23T12:09:05.394Z,1.30
2022-10-23T12:11:51.238Z,1.70
2022-10-23T12:14:27.731Z,0.80
2022-10-23T12:16:55.806Z,0.93
2022-10-23T12:19:25.963Z,1.20
2022-10-23T12:21:55.791Z,0.87
2022-10-23T12:24:39.531Z,1.13
2022-10-23T12:27:20.270Z,1.40
2022-10-23T12:30:00.116Z,0.90
2022-10-23T12:32:43.197Z,1.33
2022-10-23T12:35:32.516Z,0.90
2022-10-23T12:38:14.060Z,1.00
2022-10-23T12:40:45.002Z,1.10
2022-10-23T12:43:30.887Z,1.03
2022-10-23T12:46:04.066Z,1.10
2022-10-23T12:48:34.706Z,0.80
2022-10-23T12:51:02.543Z,1.10
2022-10-23T12:53:30.220Z,0.97
2022-10-23T12:58:37.254Z,0.83
2022-10-23T13:01:08.061Z,1.20
2022-10-23T13:03:36.613Z,0.87
2022-10-23T13:06:05.326Z,1.37
2022-10-23T13:08:38.059Z,1.40
2022-10-23T13:11:23.873Z,1.03
2022-10-23T13:13:55.028Z,1.20
2022-10-23T13:16:24.843Z,1.43
2022-10-23T13:18:53.951Z,1.13
2022-10-23T13:21:26.708Z,1.20
2022-10-23T13:23:55.259Z,1.20
2022-10-23T13:26:29.574Z,1.10
2022-10-23T13:29:02.947Z,1.60
2022-10-23T13:31:35.380Z,1.60
2022-10-23T13:34:17.846Z,2.27
2022-10-23T13:36:57.182Z,1.00
2022-10-23T13:39:30.043Z,2.20
2022-10-23T13:42:00.832Z,1.53
2022-10-23T13:44:29.971Z,1.53
2022-10-23T13:46:57.845Z,1.53
2022-10-23T13:49:25.638Z,1.40
2022-10-23T13:51:55.203Z,1.20
2022-10-23T13:54:24.460Z,1.27
2022-10-23T13:56:53.722Z,1.10
2022-10-23T13:59:22.251Z,1.30
2022-10-23T14:01:52.008Z,1.07
2022-10-23T14:04:20.222Z,0.97
2022-10-23T14:06:48.146Z,1.37
2022-10-23T14:09:18.032Z,1.00
2022-10-23T14:11:45.992Z,1.50
2022-10-23T14:14:13.842Z,1.00
2022-10-23T14:16:41.611Z,1.30
2022-10-23T14:19:13.222Z,1.30
2022-10-23T14:21:40.955Z,3.03
2022-10-23T14:24:09.779Z,1.40
2022-10-23T14:26:38.032Z,1.50
2022-10-23T14:29:09.767Z,1.40
2022-10-23T14:31:41.759Z,1.60
2022-10-23T14:34:11.551Z,1.03
2022-10-23T14:36:49.615Z,1.37
2022-10-23T14:39:17.897Z,1.40
2022-10-23T14:41:46.139Z,1.13
2022-10-23T14:44:14.106Z,1.50
2022-10-23T14:46:41.887Z,1.50
2022-10-23T14:49:11.029Z,1.20
2022-10-23T14:51:38.838Z,1.70
2022-10-23T14:54:10.365Z,2.00
2022-10-23T14:56:40.685Z,1.30
2022-10-23T14:59:10.055Z,3.50
2022-10-23T15:01:43.681Z,1.93
2022-10-23T15:04:16.672Z,2.70
2022-10-23T15:06:44.979Z,1.60
2022-10-23T15:09:12.675Z,1.70
2022-10-23T15:11:40.833Z,1.73
2022-10-23T15:14:08.857Z,1.30
2022-10-23T15:16:40.957Z,1.33
2022-10-23T15:19:12.119Z,1.60
2022-10-23T15:21:44.451Z,2.20
2022-10-23T15:24:12.231Z,2.93
2022-10-23T15:26:42.678Z,2.03
2022-10-23T15:29:11.107Z,1.60
2022-10-23T15:31:44.597Z,1.57
2022-10-23T15:34:14.451Z,1.40
2022-10-23T15:36:44.791Z,1.97
2022-10-23T15:39:13.957Z,1.53
2022-10-23T15:41:43.398Z,1.83
2022-10-23T15:44:14.168Z,2.80
2022-10-23T15:46:42.087Z,1.07
2022-10-23T15:49:09.829Z,1.80
2022-10-23T15:51:38.412Z,2.20
2022-10-23T15:54:10.041Z,1.90
2022-10-23T15:56:38.205Z,2.30
2022-10-23T15:59:05.923Z,2.30
2022-10-23T16:01:33.976Z,2.47
2022-10-23T16:04:01.873Z,2.97
2022-10-23T16:06:32.843Z,2.10
2022-10-23T16:09:00.636Z,2.00
2022-10-23T16:11:31.435Z,1.57
2022-10-23T16:14:00.254Z,2.23
2022-10-23T16:16:29.588Z,1.90
2022-10-23T16:18:59.592Z,3.57
2022-10-23T16:21:29.374Z,3.10
2022-10-23T16:23:58.911Z,2.90
2022-10-23T16:26:27.764Z,3.40
2022-10-23T16:28:58.283Z,3.13
2022-10-23T16:31:26.970Z,3.20
2022-10-23T16:33:54.836Z,3.93
2022-10-23T16:36:22.658Z,2.87
2022-10-23T16:39:11.135Z,2.87
2022-10-23T16:41:59.075Z,3.40
2022-10-23T16:44:36.830Z,2.90
2022-10-23T16:47:06.855Z,3.20
2022-10-23T16:49:34.875Z,3.77
2022-10-23T16:52:02.719Z,3.87
2022-10-23T16:54:30.499Z,3.70
2022-10-23T16:56:58.547Z,3.20
2022-10-23T16:59:26.332Z,3.60
2022-10-23T17:01:55.447Z,3.37
2022-10-23T17:04:23.214Z,3.30
2022-10-23T17:06:50.914Z,3.63
2022-10-23T17:09:19.247Z,3.50
2022-10-23T17:11:47.848Z,4.00
2022-10-23T17:14:18.378Z,4.00
2022-10-23T17:16:48.209Z,8.17
2022-10-23T17:19:43.771Z,4.13
2022-10-23T17:22:10.283Z,3.70
2022-10-23T17:24:38.563Z,4.10
2022-10-23T17:27:06.373Z,4.17
2022-10-23T17:29:34.676Z,4.57
2022-10-23T17:32:02.633Z,5.00
2022-10-23T17:34:31.919Z,4.67
2022-10-23T17:36:59.578Z,5.33
2022-10-23T17:39:29.368Z,6.03
2022-10-23T17:41:58.013Z,3.83
2022-10-23T17:44:25.968Z,4.60
2022-10-23T17:46:54.705Z,2.80
2022-10-23T17:49:22.889Z,2.70
2022-10-23T17:51:53.915Z,2.37
2022-10-23T17:54:22.494Z,2.50
2022-10-23T17:56:50.286Z,2.10
2022-10-23T17:59:23.224Z,3.10
2022-10-23T18:01:51.106Z,2.80
2022-10-23T18:04:20.295Z,3.03
2022-10-23T18:06:50.423Z,4.00
2022-10-23T18:09:20.058Z,2.93
2022-10-23T18:11:48.695Z,2.37
2022-10-23T18:14:17.100Z,2.90
2022-10-23T18:16:45.408Z,3.20
2022-10-23T18:19:13.382Z,3.57
2022-10-23T18:21:41.152Z,3.83
2022-10-23T18:24:09.141Z,3.77
2022-10-23T18:26:42.435Z,3.53
2022-10-23T18:29:12.120Z,3.50
2022-10-23T18:31:40.183Z,3.77
2022-10-23T18:34:17.104Z,3.93
2022-10-23T18:36:45.255Z,3.70
2022-10-23T18:39:15.871Z,3.15
2022-10-23T18:41:46.145Z,3.90
2022-10-23T18:44:17.106Z,3.60
2022-10-23T18:46:46.408Z,4.70
2022-10-23T18:49:15.002Z,3.95
2022-10-23T18:51:42.862Z,4.00
2022-10-23T18:54:14.273Z,3.70
2022-10-23T18:56:42.062Z,4.60
2022-10-23T18:59:18.275Z,4.90
2022-10-23T19:01:46.724Z,4.00
2022-10-23T19:04:17.580Z,6.07
2022-10-23T19:06:50.455Z,3.90
2022-10-23T19:09:18.729Z,4.83
2022-10-23T19:11:46.707Z,4.10
2022-10-23T19:14:16.016Z,6.53
2022-10-23T19:16:49.452Z,5.10
2022-10-23T19:19:24.309Z,4.67
2022-10-23T19:21:55.691Z,4.63
2022-10-23T19:24:27.000Z,4.30
2022-10-23T19:26:55.922Z,4.10
2022-10-23T19:29:27.321Z,4.18
2022-10-23T19:31:56.336Z,5.40
2022-10-23T19:34:25.224Z,4.35
2022-10-23T19:36:54.620Z,5.30
2022-10-23T19:39:22.795Z,3.83
2022-10-23T19:41:51.782Z,6.57
2022-10-23T19:44:20.332Z,4.23
2022-10-23T19:46:49.760Z,5.40
2022-10-23T19:49:17.930Z,4.53
2022-10-23T19:51:50.611Z,5.50
2022-10-23T19:54:20.455Z,4.07
2022-10-23T19:56:48.186Z,4.37
2022-10-23T19:59:16.007Z,4.13
2022-10-23T20:01:46.372Z,5.57
2022-10-23T20:04:18.252Z,4.83
2022-10-23T20:06:46.558Z,5.87
2022-10-23T20:09:14.307Z,5.00
2022-10-23T20:11:43.400Z,6.33
2022-10-23T20:14:11.133Z,4.50
2022-10-23T20:16:40.198Z,4.20
2022-10-23T20:19:11.775Z,5.30
2022-10-23T20:21:43.599Z,4.35
2022-10-23T20:24:13.703Z,3.50
2022-10-23T20:26:41.810Z,3.88
2022-10-23T20:29:09.730Z,4.90
2022-10-23T20:31:39.408Z,4.43
2022-10-23T20:34:07.889Z,4.00
2022-10-23T20:36:39.314Z,3.93
2022-10-23T20:39:13.150Z,3.50
2022-10-23T20:41:41.759Z,3.50
2022-10-23T20:46:45.635Z,4.60
2022-10-23T20:49:14.395Z,3.60
2022-10-23T20:51:43.224Z,5.53
2022-10-23T20:54:12.484Z,3.67
2022-10-23T20:56:40.822Z,4.17
2022-10-23T20:59:11.436Z,3.10
2022-10-23T21:01:41.508Z,4.13
2022-10-23T21:04:11.915Z,4.60
2022-10-23T21:06:51.974Z,6.43
2022-10-23T21:09:29.214Z,5.40
2022-10-23T21:11:57.072Z,4.20
2022-10-23T21:14:24.759Z,2.30
2022-10-23T21:16:52.452Z,4.60
2022-10-23T21:19:20.155Z,3.60
2022-10-23T21:21:48.522Z,5.30
2022-10-23T21:24:17.508Z,4.40
2022-10-23T21:26:47.055Z,3.50
2022-10-23T21:29:19.498Z,2.70
2022-10-23T21:31:52.791Z,3.23
2022-10-23T21:34:20.730Z,2.90
2022-10-23T21:37:19.937Z,2.50
2022-10-23T21:39:37.774Z,1.93
2022-10-23T21:42:06.854Z,4.17
2022-10-23T21:44:34.596Z,1.80
2022-10-23T21:47:02.334Z,1.50
2022-10-23T21:49:30.150Z,1.80
2022-10-23T21:51:57.840Z,2.90
2022-10-23T21:54:25.535Z,2.23
2022-10-23T21:56:54.168Z,2.00
2022-10-23T21:59:27.650Z,1.80
2022-10-23T22:01:58.101Z,2.17
2022-10-23T22:04:25.856Z,1.63
2022-10-23T22:06:54.013Z,1.40
2022-10-23T22:09:22.403Z,4.53
2022-10-23T22:11:50.641Z,1.80
2022-10-23T22:14:18.580Z,1.60
2022-10-23T22:16:48.180Z,2.10
2022-10-23T22:19:18.199Z,1.50
2022-10-23T22:21:46.082Z,1.70
2022-10-23T22:24:13.970Z,1.60
2022-10-23T22:26:43.596Z,2.20
2022-10-23T22:29:13.295Z,2.60
2022-10-23T22:31:44.252Z,1.50
2022-10-23T22:34:27.063Z,2.03
2022-10-23T22:37:06.495Z,1.43
2022-10-23T22:39:34.190Z,1.93
2022-10-23T22:42:01.891Z,2.17
2022-10-23T22:44:29.733Z,1.90
2022-10-23T22:46:57.447Z,2.40
2022-10-23T22:49:26.515Z,2.20
2022-10-23T22:51:54.198Z,2.07
2022-10-23T22:54:21.887Z,3.80
2022-10-23T22:56:49.555Z,2.40
2022-10-23T22:59:17.278Z,2.27
2022-10-23T23:01:47.668Z,2.07
2022-10-23T23:07:08.113Z,2.03
2022-10-23T23:09:37.927Z,1.90
2022-10-23T23:12:05.955Z,1.60
2022-10-23T23:14:33.862Z,1.50
2022-10-23T23:17:01.585Z,2.00
2022-10-23T23:19:29.379Z,1.60
2022-10-23T23:21:57.746Z,2.20
2022-10-23T23:24:27.550Z,2.43
2022-10-23T23:26:59.030Z,2.10
2022-10-23T23:29:26.835Z,1.87
2022-10-23T23:31:54.650Z,2.20
2022-10-23T23:34:22.358Z,1.97
2022-10-23T23:36:50.042Z,1.87
2022-10-23T23:39:18.288Z,2.60
2022-10-23T23:41:47.297Z,2.80
2022-10-23T23:44:15.046Z,4.00
2022-10-23T23:46:42.724Z,2.07
2022-10-23T23:49:10.439Z,2.93
2022-10-23T23:51:38.175Z,2.50
2022-10-23T23:54:05.927Z,2.60
2022-10-23T23:56:33.687Z,2.53
2022-10-23T23:59:02.655Z,1.97
